Terminal Aerodrome Forecast
Issued by NWS Grand Forks, ND

Home | Current Version | Previous Version | Graphics & Text | Print | Product List | Glossary Off
Versions: 1 2 3 4 5 6 7 8 9 10 11 12 13 14 15 16 17 18

764
FTUS43 KFGF 301739 AAA
TAFFAR
TAF AMD
KFAR 301739Z 3018/3118 15007KT P6SM BKN100
      TEMPO 3018/3020 BKN020
     FM302300 12006KT P6SM BKN150
     FM311700 05005KT P6SM SCT200=

USA.gov is the U.S. government's official web portal to all federal, state and local government web resources and services.